Time;durP1;ratioP1;P1;durP2;ratioP2;P2;SDS_P1;SDS_P2;PMS_P1;PMS_P2;Temp;Humidity;BMP_temperature;BMP_pressure;BME280_temperature;BME280_humidity;BME280_pressure;Samples;Min_cycle;Max_cycle;Signal;HPM_P1;HPM_P2
2023/12/25 00:01:28;;;;;;;1.8;1.7;;;;;;;10.6;92.72461;934.8116;;;;
2023/12/25 00:03:58;;;;;;;1.8;1.6;;;;;;;10.58;93.51953;934.8251;;;;
2023/12/25 00:06:27;;;;;;;1.9;1.3;;;;;;;10.58;94.3877;934.818;;;;
2023/12/25 00:09:02;;;;;;;0.8;0.8;;;;;;;10.55;94.94141;934.8281;;;;
2023/12/25 00:11:27;;;;;;;0.9;0.9;;;;;;;10.5;94.56348;934.7173;;;;
2023/12/25 00:13:57;;;;;;;2.7;1;;;;;;;10.44;94.72168;934.7823;;;;
2023/12/25 00:16:26;;;;;;;1.3;1.2;;;;;;;10.47;94.95703;934.8136;;;;
2023/12/25 00:18:51;;;;;;;1.4;1.3;;;;;;;10.43;94.16211;934.7584;;;;
2023/12/25 00:21:24;;;;;;;1.7;1.6;;;;;;;10.46;94.94434;934.8127;;;;
2023/12/25 00:23:55;;;;;;;1.7;1.4;;;;;;;10.46;95.54688;934.8159;;;;
2023/12/25 00:26:24;;;;;;;1;0.9;;;;;;;10.47;95.90527;934.7849;;;;
2023/12/25 00:28:50;;;;;;;0.8;0.8;;;;;;;10.46;95.60645;934.7792;;;;
2023/12/25 00:31:15;;;;;;;1.8;1.7;;;;;;;10.41;95.7998;934.7631;;;;
2023/12/25 00:33:44;;;;;;;1.2;1;;;;;;;10.43;96.1709;934.7736;;;;
2023/12/25 00:36:13;;;;;;;1.6;1;;;;;;;10.47;96.1084;934.8931;;;;
2023/12/25 00:38:37;;;;;;;1.4;1.2;;;;;;;10.41;96.2793;934.6458;;;;
2023/12/25 00:41:14;;;;;;;1.6;1.5;;;;;;;10.43;95.75977;934.5634;;;;
2023/12/25 00:43:51;;;;;;;1.8;1.1;;;;;;;10.55;95.18066;934.6618;;;;
2023/12/25 00:46:16;;;;;;;1.2;1.1;;;;;;;10.46;94.35059;934.5938;;;;
2023/12/25 00:48:42;;;;;;;1.1;1;;;;;;;10.44;94.8125;934.5452;;;;
2023/12/25 00:51:07;;;;;;;1;0.9;;;;;;;10.44;94.58398;934.5881;;;;
2023/12/25 00:53:32;;;;;;;0.6;0.6;;;;;;;10.48;94.8457;934.6145;;;;
2023/12/25 00:56:04;;;;;;;0.7;0.7;;;;;;;10.45;94.3125;934.5477;;;;
2023/12/25 00:58:35;;;;;;;1.3;1.2;;;;;;;10.48;94.0918;934.6337;;;;
2023/12/25 01:01:04;;;;;;;1.6;1.5;;;;;;;10.45;94.39453;934.6567;;;;
2023/12/25 01:03:30;;;;;;;3.1;2.5;;;;;;;10.43;93.93359;934.639;;;;
2023/12/25 01:06:00;;;;;;;4.5;3.9;;;;;;;10.44;94.15234;934.5698;;;;
2023/12/25 01:08:27;;;;;;;5.7;5.2;;;;;;;10.41;94.09863;934.6629;;;;
2023/12/25 01:10:53;;;;;;;6.3;5.7;;;;;;;10.45;94.12012;934.7427;;;;
2023/12/25 01:13:20;;;;;;;21.7;19.7;;;;;;;10.49;94.32227;934.7834;;;;
2023/12/25 01:15:45;;;;;;;14.4;13;;;;;;;10.47;94.27246;934.7156;;;;
2023/12/25 01:18:10;;;;;;;2.5;2.3;;;;;;;10.58;93.68164;934.564;;;;
2023/12/25 01:20:35;;;;;;;1.9;1.8;;;;;;;10.63;93.55469;934.7698;;;;
2023/12/25 01:23:04;;;;;;;2.8;2.6;;;;;;;10.67;93.35645;934.7651;;;;
2023/12/25 01:25:29;;;;;;;2.3;2.2;;;;;;;10.65;93.52539;934.6696;;;;
2023/12/25 01:27:58;;;;;;;1.7;1.6;;;;;;;10.57;93.92871;934.7573;;;;
2023/12/25 01:30:24;;;;;;;1.4;0.8;;;;;;;10.54;94.02539;934.7486;;;;
2023/12/25 01:32:53;;;;;;;0.5;0.5;;;;;;;10.64;94.18262;934.7134;;;;
2023/12/25 01:35:25;;;;;;;0.7;0.6;;;;;;;10.76;92.99902;934.7654;;;;
2023/12/25 01:38:00;;;;;;;0.7;0.7;;;;;;;10.68;92.88086;934.7827;;;;
2023/12/25 01:40:29;;;;;;;0.7;0.7;;;;;;;10.71;92.50977;934.8362;;;;
2023/12/25 01:42:57;;;;;;;2.4;2.2;;;;;;;10.67;92.44238;934.8671;;;;
2023/12/25 01:45:25;;;;;;;3;2.8;;;;;;;10.6;92.78125;934.896;;;;
2023/12/25 01:47:50;;;;;;;3.2;3;;;;;;;10.54;93.62402;934.8734;;;;
2023/12/25 01:50:24;;;;;;;2.7;2.5;;;;;;;10.52;93.81445;935.035;;;;
2023/12/25 01:52:50;;;;;;;1.7;1.6;;;;;;;10.51;94.04297;934.9594;;;;
2023/12/25 01:55:24;;;;;;;1.8;1.7;;;;;;;10.45;93.94727;934.9392;;;;
2023/12/25 01:57:49;;;;;;;2.3;2.1;;;;;;;10.4;94.37305;934.8775;;;;
2023/12/25 02:00:17;;;;;;;1.3;1.2;;;;;;;10.52;94.59082;934.9092;;;;
2023/12/25 02:02:46;;;;;;;1.2;1.1;;;;;;;10.5;94.49707;934.9594;;;;
2023/12/25 02:05:15;;;;;;;1.2;0.6;;;;;;;10.54;94.57129;934.9889;;;;
2023/12/25 02:07:46;;;;;;;0.7;0.7;;;;;;;10.52;94.4082;934.8773;;;;
2023/12/25 02:10:12;;;;;;;1;0.7;;;;;;;10.52;94.13574;934.9889;;;;
2023/12/25 02:12:37;;;;;;;0.8;0.8;;;;;;;10.46;94.07617;935.0308;;;;
2023/12/25 02:15:02;;;;;;;0.6;0.5;;;;;;;10.48;95.50781;934.9186;;;;
2023/12/25 02:17:27;;;;;;;0.7;0.6;;;;;;;10.43;94.91309;934.9391;;;;
2023/12/25 02:19:54;;;;;;;1.5;0.6;;;;;;;10.46;95.15918;934.9433;;;;
2023/12/25 02:22:18;;;;;;;1;0.9;;;;;;;10.45;94.74805;935.0833;;;;
2023/12/25 02:24:47;;;;;;;11.4;8.7;;;;;;;10.4;94.90918;935.0477;;;;
2023/12/25 02:27:18;;;;;;;5.6;4.3;;;;;;;10.41;95.54883;934.9653;;;;
2023/12/25 02:29:43;;;;;;;1.6;1.4;;;;;;;10.48;95.37012;934.8908;;;;
2023/12/25 02:32:12;;;;;;;4.5;3.6;;;;;;;10.46;94.85059;934.8677;;;;
2023/12/25 02:34:37;;;;;;;16.9;14.3;;;;;;;10.41;95.05762;934.9125;;;;
2023/12/25 02:37:02;;;;;;;17.4;15.8;;;;;;;10.41;94.75;934.9037;;;;
2023/12/25 02:39:32;;;;;;;11.9;10.8;;;;;;;10.34;95.30664;934.8031;;;;
2023/12/25 02:41:58;;;;;;;4.1;3.2;;;;;;;10.4;94.6582;934.7651;;;;
2023/12/25 02:44:23;;;;;;;2.9;2.7;;;;;;;10.4;94.72656;934.801;;;;
2023/12/25 02:46:52;;;;;;;2.5;2.3;;;;;;;10.4;94.4873;934.7867;;;;
2023/12/25 02:49:17;;;;;;;2.1;2;;;;;;;10.4;94.12207;934.813;;;;
2023/12/25 02:51:46;;;;;;;1.6;1.5;;;;;;;10.45;94.33691;934.8875;;;;
2023/12/25 02:54:11;;;;;;;1.5;1.4;;;;;;;10.39;94.20703;934.7126;;;;
2023/12/25 02:56:36;;;;;;;1.3;1.2;;;;;;;10.39;94.11816;934.7699;;;;
2023/12/25 02:59:02;;;;;;;1.3;1.2;;;;;;;10.4;93.94824;934.7708;;;;
2023/12/25 03:01:27;;;;;;;0.8;0.8;;;;;;;10.4;93.72266;934.7787;;;;
2023/12/25 03:03:52;;;;;;;0.5;0.4;;;;;;;10.31;93.87402;934.7219;;;;
2023/12/25 03:06:18;;;;;;;0.4;0.4;;;;;;;10.36;94.10059;934.6839;;;;
2023/12/25 03:08:43;;;;;;;1.7;0.5;;;;;;;10.36;93.73535;934.6384;;;;
2023/12/25 03:11:08;;;;;;;0.9;0.9;;;;;;;10.39;93.35352;934.5486;;;;
2023/12/25 03:13:35;;;;;;;1.7;0.7;;;;;;;10.37;93.01855;934.7165;;;;
2023/12/25 03:16:00;;;;;;;0.8;0.8;;;;;;;10.3;92.90039;934.565;;;;
2023/12/25 03:18:29;;;;;;;0.5;0.5;;;;;;;10.25;93.46094;934.634;;;;
2023/12/25 03:20:54;;;;;;;0.6;0.6;;;;;;;10.27;93.49902;934.5848;;;;
2023/12/25 03:23:22;;;;;;;0.5;0.5;;;;;;;10.24;93.83301;934.6156;;;;
2023/12/25 03:25:47;;;;;;;1.3;0.5;;;;;;;10.26;93.62207;934.5784;;;;
2023/12/25 03:28:14;;;;;;;0.5;0.5;;;;;;;10.32;93.28223;934.6351;;;;
2023/12/25 03:30:39;;;;;;;0.6;0.6;;;;;;;10.25;93.58594;934.6468;;;;
2023/12/25 03:33:07;;;;;;;0.9;0.8;;;;;;;10.27;93.74023;934.5435;;;;
2023/12/25 03:35:32;;;;;;;1.6;0.9;;;;;;;10.24;93.69824;934.5361;;;;
2023/12/25 03:37:57;;;;;;;1.1;0.9;;;;;;;10.12;93.69531;934.3201;;;;
2023/12/25 03:40:24;;;;;;;1.4;1.2;;;;;;;10.14;93.45996;934.5159;;;;
2023/12/25 03:42:49;;;;;;;2.4;1.7;;;;;;;10.13;93.43359;934.4833;;;;
2023/12/25 03:45:21;;;;;;;2.6;1.7;;;;;;;10.08;93.32129;934.4409;;;;
2023/12/25 03:47:49;;;;;;;3.8;2.1;;;;;;;10.06;93.9541;934.4042;;;;
2023/12/25 03:50:22;;;;;;;2.5;2.1;;;;;;;10.03;94.53125;934.276;;;;
2023/12/25 03:52:47;;;;;;;2.2;2;;;;;;;9.96;94.04785;934.4655;;;;
2023/12/25 03:55:13;;;;;;;2.2;2;;;;;;;9.93;93.78906;934.4549;;;;
2023/12/25 03:57:41;;;;;;;3;2.2;;;;;;;9.92;94.0498;934.3961;;;;
2023/12/25 04:02:35;;;;;;;2;1.9;;;;;;;9.86;93.70508;934.3019;;;;
2023/12/25 04:05:04;;;;;;;1.5;1.4;;;;;;;9.9;93.7832;934.3602;;;;
2023/12/25 04:07:29;;;;;;;1.7;1.4;;;;;;;9.73;94.60156;934.2881;;;;
2023/12/25 04:09:54;;;;;;;1.3;1.2;;;;;;;9.73;94.41895;934.2745;;;;
2023/12/25 04:12:19;;;;;;;2.1;1.3;;;;;;;9.76;94.32227;934.2493;;;;
2023/12/25 04:14:46;;;;;;;1.2;1.1;;;;;;;9.78;94.01855;934.1404;;;;
2023/12/25 04:17:11;;;;;;;0.9;0.9;;;;;;;9.69;94.18066;934.1217;;;;
2023/12/25 04:19:43;;;;;;;0.7;0.7;;;;;;;9.65;94.02539;934.0547;;;;
2023/12/25 04:22:06;;;;;;;0.9;0.9;;;;;;;9.63;93.90527;934.0705;;;;
2023/12/25 04:24:34;;;;;;;1;1;;;;;;;9.61;93.77832;934.1833;;;;
2023/12/25 04:26:59;;;;;;;1.4;1.3;;;;;;;9.53;93.65527;934.2118;;;;
2023/12/25 04:29:25;;;;;;;1.1;1;;;;;;;9.48;93.81641;934.1344;;;;
2023/12/25 04:31:50;;;;;;;1.2;1.1;;;;;;;9.48;94.06934;934.1257;;;;
2023/12/25 04:34:18;;;;;;;1.4;1.3;;;;;;;9.41;93.93945;934.1356;;;;
2023/12/25 04:36:43;;;;;;;1.4;1.3;;;;;;;9.42;94.04199;934.1269;;;;
2023/12/25 04:39:12;;;;;;;1;1;;;;;;;9.34;93.82129;934.1641;;;;
2023/12/25 04:41:37;;;;;;;1.7;0.9;;;;;;;9.3;93.95996;934.0796;;;;
2023/12/25 04:44:07;;;;;;;0.8;0.8;;;;;;;9.3;93.9043;934.1822;;;;
2023/12/25 04:46:31;;;;;;;0.6;0.6;;;;;;;9.29;94.13965;934.0089;;;;
2023/12/25 04:49:01;;;;;;;0.6;0.6;;;;;;;9.37;93.59766;934.073;;;;
2023/12/25 04:51:34;;;;;;;0.6;0.6;;;;;;;9.29;93.77539;933.9533;;;;
2023/12/25 04:54:01;;;;;;;0.6;0.5;;;;;;;9.45;93.32324;934.0349;;;;
2023/12/25 04:56:26;;;;;;;0.3;0.3;;;;;;;9.45;93.25293;934.0365;;;;
2023/12/25 04:58:55;;;;;;;0.8;0.6;;;;;;;9.45;92.83105;934.0214;;;;
2023/12/25 05:01:24;;;;;;;0.5;0.5;;;;;;;9.34;92.97656;933.9885;;;;
2023/12/25 05:03:50;;;;;;;1.1;1;;;;;;;9.29;93.43555;933.9676;;;;
2023/12/25 05:06:16;;;;;;;1.4;1.3;;;;;;;9.27;93.53223;933.9483;;;;
2023/12/25 05:08:41;;;;;;;6.2;4.8;;;;;;;9.2;93.35742;933.8752;;;;
2023/12/25 05:11:10;;;;;;;2;1.6;;;;;;;9.1;93.99805;933.8879;;;;
2023/12/25 05:13:35;;;;;;;1.3;1;;;;;;;9.1;94.00977;934.0119;;;;
2023/12/25 05:16:08;;;;;;;1.6;1;;;;;;;9.03;93.7998;934.0209;;;;
2023/12/25 05:18:33;;;;;;;2.2;1.6;;;;;;;9.01;94.34082;934.0597;;;;
2023/12/25 05:20:58;;;;;;;3.1;2;;;;;;;9.03;94.41504;934.1258;;;;
2023/12/25 05:23:27;;;;;;;2.1;1.5;;;;;;;8.92;94.62988;934.0952;;;;
2023/12/25 05:25:54;;;;;;;2.1;1.8;;;;;;;8.93;94.44727;933.9967;;;;
2023/12/25 05:28:20;;;;;;;2.1;1.4;;;;;;;8.9;94.74902;934.0719;;;;
2023/12/25 05:30:49;;;;;;;2.6;1.9;;;;;;;8.9;94.85156;934.0068;;;;
2023/12/25 05:33:15;;;;;;;3.8;2.6;;;;;;;8.79;95.40918;934.0317;;;;
2023/12/25 05:35:44;;;;;;;5.7;3.2;;;;;;;8.84;95.2373;934.0317;;;;
2023/12/25 05:38:09;;;;;;;4;3.1;;;;;;;8.8;94.78418;934.0033;;;;
2023/12/25 05:40:37;;;;;;;4.4;2.6;;;;;;;8.78;94.22266;933.9006;;;;
2023/12/25 05:43:10;;;;;;;2.9;2.2;;;;;;;8.69;95.0332;933.9475;;;;
2023/12/25 05:45:38;;;;;;;3.9;2.1;;;;;;;8.69;94.83984;933.9761;;;;
2023/12/25 05:48:06;;;;;;;2.7;1.7;;;;;;;8.69;94.57813;933.9403;;;;
2023/12/25 05:50:29;;;;;;;3;1.8;;;;;;;8.66;94.93359;934.0044;;;;
2023/12/25 05:52:56;;;;;;;4.2;2.2;;;;;;;8.66;95.08398;934.1616;;;;
2023/12/25 05:55:21;;;;;;;2.8;2.1;;;;;;;8.64;95.4873;934.0692;;;;
2023/12/25 05:57:49;;;;;;;3.4;2.3;;;;;;;8.62;95.51758;934.1865;;;;
2023/12/25 06:00:13;;;;;;;4.7;2.6;;;;;;;8.65;95.01172;934.2606;;;;
2023/12/25 06:02:45;;;;;;;3.7;2.9;;;;;;;8.59;94.58887;934.2596;;;;
2023/12/25 06:05:10;;;;;;;3;2.5;;;;;;;8.57;94.1543;934.3214;;;;
2023/12/25 06:07:39;;;;;;;3.9;2.7;;;;;;;8.39;94.3877;934.3081;;;;
2023/12/25 06:10:11;;;;;;;6.1;4;;;;;;;8.44;94.76367;934.2875;;;;
2023/12/25 06:12:43;;;;;;;7.5;5.3;;;;;;;8.47;94.91504;934.2505;;;;
2023/12/25 06:15:08;;;;;;;4.9;4;;;;;;;8.36;94.99512;934.3442;;;;
2023/12/25 06:17:38;;;;;;;12;7.1;;;;;;;8.28;94.96387;934.2249;;;;
2023/12/25 06:20:04;;;;;;;10.3;6.8;;;;;;;8.27;94.8252;934.4008;;;;
2023/12/25 06:22:32;;;;;;;9.3;5.5;;;;;;;8.26;94.85742;934.3823;;;;
2023/12/25 06:25:03;;;;;;;7.9;5.2;;;;;;;8.19;94.70801;934.3987;;;;
2023/12/25 06:27:27;;;;;;;8.6;5.2;;;;;;;8.15;94.35742;934.4403;;;;
2023/12/25 06:29:54;;;;;;;7.8;4.3;;;;;;;8.11;93.90625;934.4351;;;;
2023/12/25 06:32:17;;;;;;;5;3.5;;;;;;;8.09;94.24121;934.5006;;;;
2023/12/25 06:34:42;;;;;;;4.4;3.3;;;;;;;8.08;94.34277;934.545;;;;
2023/12/25 06:37:09;;;;;;;3.4;3.1;;;;;;;8.06;93.79199;934.421;;;;
2023/12/25 06:39:34;;;;;;;3.4;2.9;;;;;;;8.11;93.99707;934.543;;;;
2023/12/25 06:42:04;;;;;;;2.7;2.5;;;;;;;8.05;94.40332;934.5247;;;;
2023/12/25 06:44:37;;;;;;;2.1;1.9;;;;;;;8.05;94.36914;934.6262;;;;
2023/12/25 06:47:01;;;;;;;2.2;1.9;;;;;;;7.97;94.74902;934.6392;;;;
2023/12/25 06:49:30;;;;;;;2.1;1.7;;;;;;;7.96;95.10938;934.6168;;;;
2023/12/25 06:51:55;;;;;;;2;1.8;;;;;;;8.01;95.15625;934.6511;;;;
2023/12/25 06:54:22;;;;;;;2.1;1.7;;;;;;;8.04;94.70801;934.6174;;;;
2023/12/25 06:56:47;;;;;;;2.1;1.9;;;;;;;8.01;94.84961;934.5884;;;;
2023/12/25 06:59:15;;;;;;;1.8;1.7;;;;;;;7.92;94.94141;934.6083;;;;
2023/12/25 07:01:40;;;;;;;1.5;1.4;;;;;;;7.83;94.42383;934.6325;;;;
2023/12/25 07:04:11;;;;;;;1.4;1.3;;;;;;;7.88;95.0918;934.6942;;;;
2023/12/25 07:06:36;;;;;;;1.4;1.3;;;;;;;7.86;94.48633;934.7954;;;;
2023/12/25 07:09:09;;;;;;;1.4;1.3;;;;;;;7.77;94.52344;934.7614;;;;
2023/12/25 07:11:32;;;;;;;1.3;1.2;;;;;;;7.71;94.64746;934.7685;;;;
2023/12/25 07:14:01;;;;;;;3.1;1.5;;;;;;;7.64;94.4043;934.7889;;;;
2023/12/25 07:16:27;;;;;;;3.5;1.6;;;;;;;7.71;94.35254;934.8541;;;;
2023/12/25 07:18:55;;;;;;;2.3;2.1;;;;;;;7.66;94.43164;934.8644;;;;
2023/12/25 07:21:21;;;;;;;2.5;2.3;;;;;;;7.75;94.49707;934.9338;;;;
2023/12/25 07:23:48;;;;;;;4.3;3.9;;;;;;;7.69;94.32617;934.8681;;;;
2023/12/25 07:26:14;;;;;;;2.8;2.6;;;;;;;7.72;94.31836;934.9524;;;;
2023/12/25 07:28:47;;;;;;;4.3;2.9;;;;;;;7.65;94.76953;934.7961;;;;
2023/12/25 07:31:11;;;;;;;3.9;3.3;;;;;;;7.67;95.47461;934.6783;;;;
2023/12/25 07:33:42;;;;;;;4.3;3.5;;;;;;;7.68;95.79688;934.8924;;;;
2023/12/25 07:36:14;;;;;;;4.6;3.4;;;;;;;7.67;95.97559;934.7853;;;;
2023/12/25 07:38:39;;;;;;;5.6;3.9;;;;;;;7.61;96.23438;934.8906;;;;
2023/12/25 07:41:04;;;;;;;5.7;3.6;;;;;;;7.62;95.98633;934.798;;;;
2023/12/25 07:43:31;;;;;;;7.2;4.9;;;;;;;7.69;95.66406;934.8522;;;;
2023/12/25 07:45:56;;;;;;;7.5;5.2;;;;;;;7.63;95.4668;934.8854;;;;
2023/12/25 07:48:19;;;;;;;7;5.4;;;;;;;7.64;95.41406;934.7967;;;;
2023/12/25 07:50:49;;;;;;;7.5;5.1;;;;;;;7.61;95.37207;934.7615;;;;
2023/12/25 07:53:12;;;;;;;6.8;4.8;;;;;;;7.69;95.67188;934.8909;;;;
2023/12/25 07:55:43;;;;;;;9;4.8;;;;;;;7.67;95.82813;934.8194;;;;
2023/12/25 07:58:10;;;;;;;8;6.1;;;;;;;7.65;96.05176;934.8357;;;;
2023/12/25 08:00:35;;;;;;;9.3;5.7;;;;;;;7.61;95.5332;934.8582;;;;
2023/12/25 08:03:05;;;;;;;7.6;5.6;;;;;;;7.62;95.56738;934.8234;;;;
2023/12/25 08:05:30;;;;;;;12;6.7;;;;;;;7.61;95.11133;934.9049;;;;
2023/12/25 08:07:56;;;;;;;13.7;8.7;;;;;;;7.57;95.27344;934.8826;;;;
2023/12/25 08:10:21;;;;;;;12.1;8.5;;;;;;;7.58;95.26367;934.84;;;;
2023/12/25 08:12:49;;;;;;;14;10.1;;;;;;;7.57;95.33984;934.7692;;;;
2023/12/25 08:15:15;;;;;;;12.4;7.8;;;;;;;7.57;95.19434;934.8334;;;;
2023/12/25 08:17:40;;;;;;;11.2;7.3;;;;;;;7.6;95.09961;934.7634;;;;
2023/12/25 08:20:09;;;;;;;10;6.2;;;;;;;7.57;94.96875;934.7162;;;;
2023/12/25 08:22:40;;;;;;;9.7;6.7;;;;;;;7.58;95.04883;934.7925;;;;
2023/12/25 08:25:10;;;;;;;10.7;7.3;;;;;;;7.51;94.97559;934.7795;;;;
2023/12/25 08:27:35;;;;;;;13;8.4;;;;;;;7.57;95.07129;934.8383;;;;
2023/12/25 08:30:03;;;;;;;14;10.1;;;;;;;7.61;94.81836;934.7932;;;;
2023/12/25 08:32:28;;;;;;;13.9;9.4;;;;;;;7.61;94.86133;934.7726;;;;
2023/12/25 08:34:56;;;;;;;13.4;8.9;;;;;;;7.62;94.77539;934.8821;;;;
2023/12/25 08:37:21;;;;;;;12.3;8.7;;;;;;;7.68;94.60547;934.8812;;;;
2023/12/25 08:39:51;;;;;;;11.8;8.7;;;;;;;7.66;94.79395;934.9587;;;;
2023/12/25 08:42:21;;;;;;;13;8.8;;;;;;;7.69;94.89355;935.0201;;;;
2023/12/25 08:44:52;;;;;;;15.2;10.2;;;;;;;7.77;94.50293;934.9644;;;;
2023/12/25 08:47:25;;;;;;;12.1;8.2;;;;;;;7.84;94.58301;935.067;;;;
2023/12/25 08:49:50;;;;;;;11;7.5;;;;;;;7.82;94.47852;935.0771;;;;
2023/12/25 08:52:17;;;;;;;10.7;7.2;;;;;;;7.89;94.32422;935.2477;;;;
2023/12/25 08:54:44;;;;;;;10.1;6.7;;;;;;;7.91;94.64355;935.2004;;;;
2023/12/25 08:57:12;;;;;;;13.8;9.5;;;;;;;7.92;94.52148;935.0253;;;;
2023/12/25 08:59:37;;;;;;;12.3;8.9;;;;;;;7.93;94.32031;935.1356;;;;
2023/12/25 09:02:04;;;;;;;12;8.7;;;;;;;8.04;94.72852;935.2056;;;;
2023/12/25 09:04:30;;;;;;;11.4;7.7;;;;;;;8.09;95.68457;935.3134;;;;
2023/12/25 09:06:58;;;;;;;11.2;8;;;;;;;8.35;96.46973;935.3175;;;;
2023/12/25 09:09:23;;;;;;;6.6;4.2;;;;;;;9.04;94.08496;935.2424;;;;
2023/12/25 09:11:52;;;;;;;6.5;4.6;;;;;;;9.12;91.6123;935.2789;;;;
2023/12/25 09:14:22;;;;;;;4.9;3.8;;;;;;;9.51;91.00879;935.3593;;;;
2023/12/25 09:16:47;;;;;;;4.8;3.6;;;;;;;9.67;88.98145;935.3315;;;;
2023/12/25 09:19:13;;;;;;;3.8;3.4;;;;;;;10.43;89.12793;935.3331;;;;
2023/12/25 09:21:38;;;;;;;5.5;3.4;;;;;;;11.27;86.5791;935.3579;;;;
2023/12/25 09:24:10;;;;;;;4.3;3;;;;;;;12.29;82.28906;935.5066;;;;
2023/12/25 09:26:36;;;;;;;7.8;5.2;;;;;;;13.18;77.4707;935.3083;;;;
2023/12/25 09:29:09;;;;;;;5.1;3.8;;;;;;;13.82;73.68555;935.3323;;;;
2023/12/25 09:31:32;;;;;;;4.9;3.4;;;;;;;14.14;71.11426;935.3092;;;;
2023/12/25 09:33:56;;;;;;;4.8;3.5;;;;;;;14.9;68.27344;935.229;;;;
2023/12/25 09:36:26;;;;;;;3.4;2.9;;;;;;;14.93;68.3252;935.1948;;;;
2023/12/25 09:38:50;;;;;;;3.7;3;;;;;;;15.51;66.40625;935.2017;;;;
2023/12/25 09:41:15;;;;;;;4.8;3.4;;;;;;;15.65;66.90137;935.3583;;;;
2023/12/25 09:43:41;;;;;;;5.6;3.7;;;;;;;15.87;64.81934;935.3134;;;;
2023/12/25 09:46:05;;;;;;;5.2;3.7;;;;;;;15.69;64.35352;935.4372;;;;
2023/12/25 09:48:35;;;;;;;3.2;2.8;;;;;;;16.07;63.05566;935.3331;;;;
2023/12/25 09:50:59;;;;;;;2.9;2.2;;;;;;;16.02;62.73633;935.3995;;;;
2023/12/25 09:53:29;;;;;;;4.5;2.4;;;;;;;16;62.52734;935.3572;;;;
2023/12/25 09:55:58;;;;;;;2.5;2.3;;;;;;;16.1;62.73828;935.3109;;;;
2023/12/25 09:58:23;;;;;;;3;2.2;;;;;;;15.98;63.33301;935.315;;;;
2023/12/25 10:00:52;;;;;;;3.6;2.3;;;;;;;16.33;62.58496;935.2245;;;;
2023/12/25 10:03:18;;;;;;;3.6;2.5;;;;;;;16.27;61.34961;935.3661;;;;
2023/12/25 10:05:45;;;;;;;4.2;3;;;;;;;16.42;61.61426;935.2004;;;;
2023/12/25 10:08:10;;;;;;;5;3.5;;;;;;;16.56;60.33691;935.285;;;;
2023/12/25 10:10:39;;;;;;;7.5;3.6;;;;;;;16.36;61.1543;935.1052;;;;
2023/12/25 10:13:04;;;;;;;6.2;3.5;;;;;;;16.37;62.18652;935.2004;;;;
2023/12/25 10:15:30;;;;;;;4;3;;;;;;;16.08;62.15723;935.1256;;;;
2023/12/25 10:17:59;;;;;;;2.8;2.2;;;;;;;15.43;63.8418;935.1451;;;;
2023/12/25 10:20:27;;;;;;;2.4;1.6;;;;;;;15.16;63.39844;935.0078;;;;
2023/12/25 10:22:55;;;;;;;1.7;1.3;;;;;;;14.71;65.31543;934.9441;;;;
2023/12/25 10:25:22;;;;;;;1.9;1.3;;;;;;;14.42;66.88672;935.0588;;;;
2023/12/25 10:27:53;;;;;;;2.2;1.5;;;;;;;14.11;68.8418;934.9916;;;;
2023/12/25 10:30:19;;;;;;;2.2;1.6;;;;;;;14.11;69.14063;934.986;;;;
2023/12/25 10:32:54;;;;;;;1.6;1.4;;;;;;;13.79;71.0332;934.9475;;;;
2023/12/25 10:35:22;;;;;;;2.4;1.6;;;;;;;13.87;70.59766;935.0151;;;;
2023/12/25 10:37:48;;;;;;;1.6;1.3;;;;;;;13.68;71.3623;934.9739;;;;
2023/12/25 10:40:21;;;;;;;3.8;1.5;;;;;;;13.71;72.36719;934.9697;;;;
2023/12/25 10:42:46;;;;;;;1.9;1.4;;;;;;;13.72;72.25391;934.98;;;;
2023/12/25 10:45:11;;;;;;;2;1.4;;;;;;;13.86;70.72266;934.8727;;;;
2023/12/25 10:47:43;;;;;;;2.2;1.2;;;;;;;13.93;71.12402;934.7969;;;;
2023/12/25 10:50:16;;;;;;;3.2;1.4;;;;;;;14.02;71.49707;934.8859;;;;
2023/12/25 10:52:44;;;;;;;2.1;1.5;;;;;;;14.1;71.26953;934.8483;;;;
2023/12/25 10:55:09;;;;;;;2.2;1.7;;;;;;;14.05;71.01855;934.848;;;;
2023/12/25 10:57:39;;;;;;;3.2;2;;;;;;;13.91;71.54883;934.7737;;;;
2023/12/25 11:00:14;;;;;;;3;2.1;;;;;;;13.79;71.41406;934.8314;;;;
2023/12/25 11:02:46;;;;;;;2.7;2;;;;;;;13.76;71.29395;934.802;;;;
2023/12/25 11:05:18;;;;;;;1.9;1.7;;;;;;;13.71;70.81445;934.8113;;;;
2023/12/25 11:07:49;;;;;;;1.9;1.7;;;;;;;13.69;70.67383;934.8906;;;;
2023/12/25 11:10:44;;;;;;;3;2.1;;;;;;;13.61;71.02832;934.7773;;;;
2023/12/25 11:13:09;;;;;;;2.4;1.8;;;;;;;13.6;71.46387;934.8766;;;;
2023/12/25 11:15:35;;;;;;;2.3;1.7;;;;;;;13.64;71.22852;934.8599;;;;
2023/12/25 11:18:07;;;;;;;2.6;1.9;;;;;;;13.69;71.03027;934.6186;;;;
2023/12/25 11:20:35;;;;;;;2.3;1.5;;;;;;;13.76;70.80078;934.5756;;;;
2023/12/25 11:23:05;;;;;;;2.8;1.7;;;;;;;13.84;71.15723;934.652;;;;
2023/12/25 11:25:33;;;;;;;3;1.9;;;;;;;13.88;70.57813;934.59;;;;
2023/12/25 11:27:56;;;;;;;2.3;1.5;;;;;;;13.91;70.8457;934.5425;;;;
2023/12/25 11:30:27;;;;;;;2.1;1.7;;;;;;;13.74;71.71582;934.5229;;;;
2023/12/25 11:32:52;;;;;;;3.4;1.8;;;;;;;13.85;71.56152;934.5247;;;;
2023/12/25 11:35:17;;;;;;;3.1;1.8;;;;;;;13.77;71.27246;934.3411;;;;
2023/12/25 11:37:51;;;;;;;1.5;1.4;;;;;;;13.78;71.66602;934.4914;;;;
2023/12/25 11:40:22;;;;;;;1.9;1.4;;;;;;;13.82;71.53418;934.4649;;;;
2023/12/25 11:42:50;;;;;;;1.9;1.3;;;;;;;13.68;71.76465;934.3906;;;;
2023/12/25 11:45:19;;;;;;;1.5;1.3;;;;;;;13.66;70.92188;934.3019;;;;
2023/12/25 11:47:44;;;;;;;1.8;1.2;;;;;;;13.6;71.29004;934.3703;;;;
2023/12/25 11:50:14;;;;;;;2.3;1.3;;;;;;;13.46;72.0498;934.3738;;;;
2023/12/25 11:52:38;;;;;;;1.9;1.3;;;;;;;13.49;71.36426;934.2744;;;;
2023/12/25 11:55:11;;;;;;;1.4;1.1;;;;;;;13.46;71.54395;934.3282;;;;
2023/12/25 11:57:36;;;;;;;2.1;1.4;;;;;;;13.35;71.75391;934.3368;;;;
2023/12/25 12:00:03;;;;;;;1.1;1;;;;;;;13.36;71.96387;934.3063;;;;
2023/12/25 12:02:35;;;;;;;2;1.1;;;;;;;13.38;71.69238;934.2701;;;;
2023/12/25 12:05:03;;;;;;;1.4;1.1;;;;;;;13.43;71.11426;934.1764;;;;
2023/12/25 12:07:28;;;;;;;1.1;1;;;;;;;13.42;70.8584;934.1702;;;;
2023/12/25 12:09:55;;;;;;;1.2;0.9;;;;;;;13.44;70.66699;934.13;;;;
2023/12/25 12:12:20;;;;;;;0.7;0.7;;;;;;;13.43;70.5625;934.1261;;;;
2023/12/25 12:14:50;;;;;;;0.7;0.5;;;;;;;13.45;70.70313;934.0547;;;;
2023/12/25 12:17:20;;;;;;;1.1;0.6;;;;;;;13.48;70.54785;934.2576;;;;
2023/12/25 12:19:45;;;;;;;0.6;0.6;;;;;;;13.51;69.70117;934.0678;;;;
2023/12/25 12:22:12;;;;;;;1.8;0.9;;;;;;;13.44;69.93164;934.1644;;;;
2023/12/25 12:24:38;;;;;;;1.1;0.8;;;;;;;13.3;69.09375;934.2651;;;;
2023/12/25 12:27:03;;;;;;;1.5;0.8;;;;;;;13.36;68.5625;934.1247;;;;
2023/12/25 12:29:31;;;;;;;1.5;1;;;;;;;13.4;70.17676;934.2596;;;;
2023/12/25 12:31:56;;;;;;;2.4;1.1;;;;;;;13.37;69.83984;934.2134;;;;
2023/12/25 12:34:23;;;;;;;1.6;1.2;;;;;;;13.28;68.6875;934.255;;;;
2023/12/25 12:36:48;;;;;;;1;1;;;;;;;13.12;68.63867;934.2388;;;;
2023/12/25 12:39:19;;;;;;;1;0.9;;;;;;;13.27;67.05469;934.1526;;;;
2023/12/25 12:41:44;;;;;;;1.4;0.8;;;;;;;13.3;66.92188;934.2084;;;;
2023/12/25 12:44:16;;;;;;;1.1;1;;;;;;;13.35;66.38867;934.1577;;;;
2023/12/25 12:46:43;;;;;;;1.2;0.9;;;;;;;13.38;65.56543;934.223;;;;
2023/12/25 12:49:09;;;;;;;1.8;1.6;;;;;;;13.43;64.74609;934.1692;;;;
2023/12/25 12:51:35;;;;;;;1.3;1.2;;;;;;;13.37;65.41504;934.2119;;;;
2023/12/25 12:54:00;;;;;;;1.1;1;;;;;;;13.52;67.71387;934.2301;;;;
2023/12/25 12:56:26;;;;;;;1.4;1.1;;;;;;;13.57;68.08887;934.3953;;;;
2023/12/25 12:58:52;;;;;;;3.1;1.3;;;;;;;13.65;67.40039;934.3981;;;;
2023/12/25 13:01:23;;;;;;;1.6;1.2;;;;;;;13.66;64.1582;934.4077;;;;
2023/12/25 13:03:47;;;;;;;1.4;1.1;;;;;;;13.64;63.86816;934.3494;;;;
2023/12/25 13:06:13;;;;;;;0.9;0.7;;;;;;;13.72;63.12109;934.4158;;;;
2023/12/25 13:08:38;;;;;;;0.9;0.8;;;;;;;13.63;62.15527;934.4334;;;;
2023/12/25 13:11:03;;;;;;;1.4;0.6;;;;;;;13.64;62.52344;934.3878;;;;
2023/12/25 13:13:35;;;;;;;1.6;0.7;;;;;;;13.64;62.71875;934.3942;;;;
2023/12/25 13:16:03;;;;;;;1;0.9;;;;;;;13.57;63.11035;934.4113;;;;
2023/12/25 13:18:28;;;;;;;1;0.9;;;;;;;13.51;63.87305;934.5022;;;;
2023/12/25 13:20:54;;;;;;;1;0.9;;;;;;;13.48;65.05176;934.528;;;;
2023/12/25 13:23:20;;;;;;;1.1;1;;;;;;;13.44;65.75879;934.5236;;;;
2023/12/25 13:25:45;;;;;;;1.2;0.9;;;;;;;13.53;62.99023;934.5764;;;;
2023/12/25 13:28:12;;;;;;;1.1;0.9;;;;;;;13.4;64.99512;934.6283;;;;
2023/12/25 13:30:37;;;;;;;1.4;0.8;;;;;;;13.38;63.29004;934.5756;;;;
2023/12/25 13:33:04;;;;;;;0.7;0.7;;;;;;;13.34;62.61816;934.5656;;;;
2023/12/25 13:35:29;;;;;;;1.2;0.6;;;;;;;13.41;61.84668;934.6354;;;;
2023/12/25 13:37:55;;;;;;;2.1;1.1;;;;;;;13.34;65.63965;934.6752;;;;
2023/12/25 13:40:35;;;;;;;1.1;0.9;;;;;;;13.31;67.29102;934.6912;;;;
2023/12/25 13:43:29;;;;;;;1.4;1;;;;;;;13.34;67.62695;934.6824;;;;
2023/12/25 13:46:04;;;;;;;1.1;0.8;;;;;;;13.3;67.3584;934.6594;;;;
2023/12/25 13:49:00;;;;;;;1.7;1.4;;;;;;;13.28;67.87305;934.7155;;;;
2023/12/25 13:51:40;;;;;;;1.7;1.2;;;;;;;13.2;68.78906;934.7413;;;;
2023/12/25 13:54:11;;;;;;;3.3;1.9;;;;;;;13.13;69.36426;934.7607;;;;
2023/12/25 13:56:46;;;;;;;7.4;4.1;;;;;;;13.22;69.54004;934.7391;;;;
2023/12/25 13:59:20;;;;;;;7.2;4.4;;;;;;;12.91;71.16504;934.8272;;;;
2023/12/25 14:01:50;;;;;;;6.6;3.9;;;;;;;12.81;72.1709;934.761;;;;
2023/12/25 14:04:16;;;;;;;8.1;5.5;;;;;;;12.72;73.29199;934.9285;;;;
2023/12/25 14:06:46;;;;;;;8.8;5.8;;;;;;;12.49;74.20605;935.0025;;;;
2023/12/25 14:09:17;;;;;;;7;4.7;;;;;;;12.48;74.48047;934.9203;;;;
2023/12/25 14:11:43;;;;;;;6.4;4.2;;;;;;;12.28;75.21289;934.9118;;;;
2023/12/25 14:14:12;;;;;;;5.8;3.8;;;;;;;12.17;75.68848;935.0203;;;;
2023/12/25 14:16:38;;;;;;;5.8;3.4;;;;;;;12.07;76.32227;935.0828;;;;
2023/12/25 14:19:06;;;;;;;9.1;5.1;;;;;;;11.87;77.13477;935.1832;;;;
2023/12/25 14:21:33;;;;;;;11.5;6.4;;;;;;;11.73;77.17969;935.1875;;;;
2023/12/25 14:24:01;;;;;;;5.3;4;;;;;;;11.84;76.25977;935.038;;;;
2023/12/25 14:26:26;;;;;;;6;3.8;;;;;;;11.81;76.28809;935.1558;;;;
2023/12/25 14:28:52;;;;;;;4.7;3.6;;;;;;;11.71;76.75098;935.1922;;;;
2023/12/25 14:31:20;;;;;;;5.3;3.8;;;;;;;11.61;76.97363;935.1345;;;;
2023/12/25 14:33:46;;;;;;;5.8;4.2;;;;;;;11.59;77.17871;935.2366;;;;
2023/12/25 14:36:12;;;;;;;6.7;4.2;;;;;;;11.5;77.26367;935.1472;;;;